createdAt,value
2023-02-06T00:00:49.240Z,48.55
2023-02-06T00:03:16.015Z,39.35
2023-02-06T00:05:42.730Z,50.05
2023-02-06T00:08:10.247Z,36.33
2023-02-06T00:10:36.912Z,43.38
2023-02-06T00:13:03.611Z,47.20
2023-02-06T00:15:30.294Z,32.30
2023-02-06T00:17:57.012Z,36.95
2023-02-06T00:20:23.667Z,47.38
2023-02-06T00:22:50.582Z,38.63
2023-02-06T00:25:17.341Z,48.55
2023-02-06T00:27:44.068Z,43.50
2023-02-06T00:30:11.650Z,37.67
2023-02-06T00:32:38.399Z,46.28
2023-02-06T00:35:06.946Z,41.53
2023-02-06T00:37:33.648Z,34.50
2023-02-06T00:40:00.376Z,41.40
2023-02-06T00:42:27.957Z,35.20
2023-02-06T00:44:54.649Z,29.40
2023-02-06T00:47:23.886Z,35.55
2023-02-06T00:49:50.671Z,51.72
2023-02-06T00:52:18.782Z,34.65
2023-02-06T00:54:45.601Z,38.30
2023-02-06T00:57:12.714Z,43.03
2023-02-06T00:59:41.195Z,37.00
2023-02-06T01:02:12.778Z,32.25
2023-02-06T01:04:39.615Z,37.95
2023-02-06T01:07:06.561Z,36.30
2023-02-06T01:09:33.297Z,37.10
2023-02-06T01:11:59.949Z,40.10
2023-02-06T01:14:26.658Z,44.17
2023-02-06T01:16:53.456Z,45.03
2023-02-06T01:19:20.198Z,37.33
2023-02-06T01:21:46.938Z,36.13
2023-02-06T01:24:13.659Z,33.40
2023-02-06T01:26:40.299Z,32.47
2023-02-06T01:29:06.997Z,39.53
2023-02-06T01:31:34.245Z,38.67
2023-02-06T01:34:02.111Z,34.35
2023-02-06T01:36:29.222Z,40.78
2023-02-06T01:38:56.667Z,42.38
2023-02-06T01:41:24.079Z,42.08
2023-02-06T01:44:12.472Z,33.63
2023-02-06T01:46:40.874Z,36.80
2023-02-06T01:49:13.596Z,23.65
2023-02-06T01:54:13.669Z,52.45
2023-02-06T01:56:47.242Z,33.75
2023-02-06T01:59:14.130Z,35.47
2023-02-06T02:01:41.691Z,35.20
2023-02-06T02:04:14.620Z,51.13
2023-02-06T02:06:41.619Z,37.83
2023-02-06T02:09:09.344Z,39.30
2023-02-06T02:11:39.006Z,36.95
2023-02-06T02:14:10.008Z,41.75
2023-02-06T02:17:14.575Z,33.47
2023-02-06T02:20:15.860Z,34.58
2023-02-06T02:23:01.167Z,25.70
2023-02-06T02:25:52.828Z,40.47
2023-02-06T02:28:57.078Z,35.63
2023-02-06T02:31:50.059Z,23.05
2023-02-06T02:34:52.158Z,36.78
2023-02-06T02:37:26.441Z,36.15
2023-02-06T02:39:57.194Z,39.33
2023-02-06T02:42:43.078Z,35.90
2023-02-06T02:45:16.310Z,31.35
2023-02-06T02:47:58.173Z,36.85
2023-02-06T02:50:26.366Z,37.05
2023-02-06T02:52:53.240Z,36.78
2023-02-06T02:55:23.015Z,34.00
2023-02-06T02:58:01.223Z,41.25
2023-02-06T03:00:29.689Z,33.40
2023-02-06T03:02:58.353Z,31.33
2023-02-06T03:05:28.977Z,32.53
2023-02-06T03:08:25.249Z,27.85
2023-02-06T03:11:16.028Z,32.03
2023-02-06T03:14:06.184Z,34.80
2023-02-06T03:16:49.444Z,25.48
2023-02-06T03:19:31.240Z,29.98
2023-02-06T03:22:00.333Z,28.95
2023-02-06T03:24:33.024Z,26.38
2023-02-06T03:29:31.077Z,32.10
2023-02-06T03:32:02.092Z,22.98
2023-02-06T03:34:42.865Z,33.85
2023-02-06T03:37:10.759Z,26.95
2023-02-06T03:39:38.104Z,31.80
2023-02-06T03:42:12.125Z,31.13
2023-02-06T03:44:44.472Z,27.98
2023-02-06T03:47:12.889Z,28.38
2023-02-06T03:49:43.459Z,31.00
2023-02-06T03:52:14.953Z,24.33
2023-02-06T03:54:48.140Z,21.85
2023-02-06T03:57:19.289Z,33.13
2023-02-06T03:59:46.866Z,36.42
2023-02-06T04:02:17.955Z,27.83
2023-02-06T04:04:48.614Z,21.17
2023-02-06T04:07:27.263Z,19.42
2023-02-06T04:09:54.581Z,27.02
2023-02-06T04:12:22.010Z,34.53
2023-02-06T04:14:48.837Z,27.27
2023-02-06T04:17:21.102Z,29.00
2023-02-06T04:19:58.397Z,50.45
2023-02-06T04:22:27.833Z,23.63
2023-02-06T04:24:54.528Z,29.08
2023-02-06T04:27:22.332Z,29.13
2023-02-06T04:29:48.980Z,28.02
2023-02-06T04:32:15.685Z,31.95
2023-02-06T04:34:42.403Z,42.42
2023-02-06T04:37:12.236Z,34.97
2023-02-06T04:39:39.040Z,37.05
2023-02-06T04:42:07.024Z,32.92
2023-02-06T04:44:34.002Z,31.52
2023-02-06T04:47:01.733Z,35.20
2023-02-06T04:49:28.457Z,26.27
2023-02-06T04:51:55.104Z,24.73
2023-02-06T04:54:21.831Z,36.35
2023-02-06T04:56:49.106Z,24.17
2023-02-06T04:59:15.932Z,28.27
2023-02-06T05:01:42.730Z,22.13
2023-02-06T05:04:09.444Z,36.28
2023-02-06T05:06:36.531Z,33.83
2023-02-06T05:09:04.868Z,21.90
2023-02-06T05:11:31.618Z,24.83
2023-02-06T05:13:58.277Z,27.83
2023-02-06T05:16:25.030Z,32.45
2023-02-06T05:18:56.184Z,21.23
2023-02-06T05:21:24.247Z,26.83
2023-02-06T05:23:51.040Z,28.40
2023-02-06T05:26:17.764Z,15.50
2023-02-06T05:28:44.474Z,23.98
2023-02-06T05:31:18.043Z,23.50
2023-02-06T05:33:45.400Z,13.77
2023-02-06T05:36:12.245Z,22.33
2023-02-06T05:38:38.945Z,25.60
2023-02-06T05:41:05.928Z,17.75
2023-02-06T05:43:33.713Z,16.70
2023-02-06T05:46:00.585Z,15.98
2023-02-06T05:48:30.404Z,19.67
2023-02-06T05:50:58.152Z,25.33
2023-02-06T05:53:31.044Z,18.38
2023-02-06T05:55:58.239Z,16.50
2023-02-06T05:58:25.001Z,21.23
2023-02-06T06:00:51.763Z,27.48
2023-02-06T06:03:19.077Z,22.83
2023-02-06T06:05:46.059Z,17.23
2023-02-06T06:08:12.769Z,22.33
2023-02-06T06:10:39.690Z,16.70
2023-02-06T06:13:06.749Z,15.40
2023-02-06T06:15:33.787Z,21.48
2023-02-06T06:18:00.686Z,26.10
2023-02-06T06:20:28.523Z,23.35
2023-02-06T06:22:55.168Z,39.25
2023-02-06T06:25:21.844Z,17.02
2023-02-06T06:27:48.651Z,20.85
2023-02-06T06:30:15.429Z,25.10
2023-02-06T06:32:42.137Z,24.25
2023-02-06T06:35:09.080Z,24.10
2023-02-06T06:37:35.806Z,22.98
2023-02-06T06:40:02.545Z,21.17
2023-02-06T06:42:29.453Z,20.13
2023-02-06T06:44:56.145Z,22.15
2023-02-06T06:47:26.195Z,42.35
2023-02-06T06:49:52.968Z,29.40
2023-02-06T06:52:25.392Z,32.75
2023-02-06T06:54:53.300Z,24.60
2023-02-06T06:57:21.089Z,28.42
2023-02-06T06:59:47.887Z,22.80
2023-02-06T07:02:14.881Z,30.40
2023-02-06T07:04:42.073Z,25.00
2023-02-06T07:07:08.942Z,24.40
2023-02-06T07:09:35.668Z,28.70
2023-02-06T07:12:02.479Z,26.02
2023-02-06T07:14:29.276Z,24.60
2023-02-06T07:16:56.315Z,24.75
2023-02-06T07:19:25.815Z,23.33
2023-02-06T07:21:52.523Z,20.50
2023-02-06T07:24:19.248Z,33.35
2023-02-06T07:26:46.041Z,31.17
2023-02-06T07:29:12.724Z,26.73
2023-02-06T07:31:39.422Z,25.45
2023-02-06T07:34:06.232Z,25.42
2023-02-06T07:36:32.996Z,25.38
2023-02-06T07:39:01.390Z,37.65
2023-02-06T07:41:28.064Z,27.27
2023-02-06T07:43:55.083Z,30.95
2023-02-06T07:46:21.969Z,21.17
2023-02-06T07:48:48.640Z,33.17
2023-02-06T07:51:15.304Z,29.45
2023-02-06T07:53:42.029Z,41.08
2023-02-06T07:56:14.707Z,31.52
2023-02-06T08:01:08.787Z,30.58
2023-02-06T08:03:35.577Z,26.58
2023-02-06T08:06:08.491Z,30.88
2023-02-06T08:08:35.411Z,26.33
2023-02-06T08:11:06.219Z,35.83
2023-02-06T08:13:33.710Z,32.15
2023-02-06T08:16:04.708Z,41.97
2023-02-06T08:18:31.492Z,34.00
2023-02-06T08:21:06.195Z,25.75
2023-02-06T08:23:33.343Z,23.80
2023-02-06T08:26:09.178Z,24.48
2023-02-06T08:28:37.112Z,20.58
2023-02-06T08:31:31.873Z,26.70
2023-02-06T08:33:58.735Z,30.60
2023-02-06T08:36:26.766Z,24.48
2023-02-06T08:38:53.855Z,25.30
2023-02-06T08:41:40.210Z,32.65
2023-02-06T08:44:11.786Z,33.75
2023-02-06T08:46:39.342Z,46.42
2023-02-06T08:49:08.314Z,37.75
2023-02-06T08:51:36.670Z,27.83
2023-02-06T08:54:06.787Z,25.15
2023-02-06T08:56:34.786Z,40.33
2023-02-06T08:59:02.817Z,34.58
2023-02-06T09:01:31.883Z,24.77
2023-02-06T09:04:06.558Z,33.25
2023-02-06T09:06:42.245Z,30.65
2023-02-06T09:09:10.491Z,33.85
2023-02-06T09:11:38.147Z,32.05
2023-02-06T09:14:06.521Z,33.88
2023-02-06T09:16:34.101Z,30.88
2023-02-06T09:19:02.170Z,29.58
2023-02-06T09:21:31.370Z,31.55
2023-02-06T09:24:01.056Z,29.02
2023-02-06T09:26:31.690Z,23.88
2023-02-06T09:29:00.687Z,25.95
2023-02-06T09:31:32.670Z,26.17
2023-02-06T09:34:02.618Z,25.98
2023-02-06T09:36:30.320Z,30.80
2023-02-06T09:39:00.693Z,28.08
2023-02-06T09:41:32.230Z,33.33
2023-02-06T09:44:22.122Z,33.65
2023-02-06T09:46:59.116Z,17.30
2023-02-06T09:49:35.413Z,30.27
2023-02-06T09:52:18.106Z,26.92
2023-02-06T09:54:44.762Z,32.78
2023-02-06T09:57:19.895Z,28.65
2023-02-06T09:59:51.625Z,31.67
2023-02-06T10:02:24.308Z,39.53
2023-02-06T10:07:51.091Z,18.95
2023-02-06T10:10:23.760Z,33.03
2023-02-06T10:18:24.790Z,29.48
2023-02-06T10:20:56.225Z,30.38
2023-02-06T10:23:27.136Z,27.33
2023-02-06T10:26:05.701Z,29.02
2023-02-06T10:28:35.325Z,35.10
2023-02-06T10:31:17.116Z,33.05
2023-02-06T10:33:59.998Z,29.10
2023-02-06T10:39:14.069Z,35.83
2023-02-06T10:42:02.737Z,41.33
2023-02-06T10:44:37.459Z,27.75
2023-02-06T10:47:12.866Z,34.10
2023-02-06T10:49:47.629Z,22.98
2023-02-06T10:52:34.648Z,27.55
2023-02-06T10:55:12.652Z,27.63
2023-02-06T10:57:44.593Z,29.45
2023-02-06T11:00:25.338Z,39.05
2023-02-06T11:03:07.835Z,26.17
2023-02-06T11:05:36.040Z,22.02
2023-02-06T11:08:23.356Z,22.45
2023-02-06T11:10:50.435Z,28.52
2023-02-06T11:13:35.248Z,25.95
2023-02-06T11:16:13.155Z,25.98
2023-02-06T11:18:43.306Z,24.70
2023-02-06T11:21:12.630Z,29.20
2023-02-06T11:23:40.427Z,25.48
2023-02-06T11:26:19.804Z,28.05
2023-02-06T11:29:08.768Z,36.28
2023-02-06T11:31:46.036Z,19.83
2023-02-06T11:34:35.141Z,26.83
2023-02-06T11:37:07.348Z,20.63
2023-02-06T11:39:35.782Z,24.70
2023-02-06T11:42:18.189Z,28.30
2023-02-06T11:47:37.910Z,27.65
2023-02-06T11:50:14.017Z,22.75
2023-02-06T11:52:45.158Z,21.23
2023-02-06T11:55:26.666Z,24.85
2023-02-06T11:58:07.850Z,24.50
2023-02-06T12:00:36.636Z,23.65
2023-02-06T12:03:04.260Z,21.50
2023-02-06T12:05:40.093Z,18.85
2023-02-06T12:08:17.506Z,28.08
2023-02-06T12:10:54.756Z,20.02
2023-02-06T12:13:28.028Z,20.10
2023-02-06T12:16:00.919Z,16.13
2023-02-06T12:18:38.208Z,31.25
2023-02-06T12:21:13.988Z,20.73
2023-02-06T12:23:56.112Z,20.73
2023-02-06T12:26:27.177Z,20.02
2023-02-06T12:29:19.349Z,22.95
2023-02-06T12:31:56.889Z,18.50
2023-02-06T12:34:31.541Z,17.42
2023-02-06T12:37:31.460Z,17.23
2023-02-06T12:39:59.953Z,19.08
2023-02-06T12:42:37.650Z,24.15
2023-02-06T12:45:24.850Z,14.73
2023-02-06T12:47:57.374Z,26.40
2023-02-06T12:50:40.501Z,17.77
2023-02-06T12:53:28.001Z,25.67
2023-02-06T12:56:15.662Z,21.73
2023-02-06T12:58:42.282Z,21.80
2023-02-06T13:01:33.053Z,21.15
2023-02-06T13:04:09.788Z,25.25
2023-02-06T13:06:47.893Z,17.25
2023-02-06T13:09:27.678Z,26.98
2023-02-06T13:12:05.928Z,16.40
2023-02-06T13:14:34.041Z,16.23
2023-02-06T13:17:11.648Z,29.77
2023-02-06T13:19:41.512Z,33.20
2023-02-06T13:22:08.191Z,23.25
2023-02-06T13:24:40.048Z,19.15
2023-02-06T13:27:12.281Z,18.17
2023-02-06T13:29:49.724Z,18.90
2023-02-06T13:32:18.729Z,15.48
2023-02-06T13:34:51.613Z,21.50
2023-02-06T13:37:33.607Z,20.65
2023-02-06T13:40:30.316Z,20.35
2023-02-06T13:43:14.912Z,17.20
2023-02-06T13:46:01.249Z,22.70
2023-02-06T13:49:04.965Z,15.70
2023-02-06T13:51:56.448Z,18.02
2023-02-06T13:54:47.662Z,16.73
2023-02-06T13:57:59.608Z,13.43
2023-02-06T14:00:31.875Z,16.08
2023-02-06T14:05:44.851Z,15.10
2023-02-06T14:08:33.702Z,10.77
2023-02-06T14:12:08.382Z,21.90
2023-02-06T14:14:46.925Z,15.32
2023-02-06T14:17:31.569Z,20.85
2023-02-06T14:20:25.297Z,19.52
2023-02-06T14:23:15.226Z,17.02
2023-02-06T14:25:55.538Z,18.23
2023-02-06T14:28:49.973Z,22.88
2023-02-06T14:31:45.728Z,14.90
2023-02-06T14:34:40.200Z,15.82
2023-02-06T14:37:32.418Z,19.88
2023-02-06T14:40:04.447Z,20.33
2023-02-06T14:42:37.302Z,24.80
2023-02-06T14:45:09.060Z,24.35
2023-02-06T14:47:42.227Z,18.50
2023-02-06T14:50:35.486Z,19.13
2023-02-06T14:53:08.285Z,20.83
2023-02-06T14:55:38.483Z,14.45
2023-02-06T14:58:17.346Z,19.58
2023-02-06T15:00:44.249Z,17.10
2023-02-06T15:03:20.505Z,21.02
2023-02-06T15:06:07.779Z,18.30
2023-02-06T15:08:36.808Z,29.63
2023-02-06T15:11:06.721Z,16.58
2023-02-06T15:13:35.289Z,19.27
2023-02-06T15:16:07.817Z,18.48
2023-02-06T15:18:36.299Z,18.35
2023-02-06T15:21:08.859Z,21.75
2023-02-06T15:23:56.762Z,21.58
2023-02-06T15:26:45.182Z,17.70
2023-02-06T15:29:23.204Z,17.98
2023-02-06T15:31:51.889Z,22.15
2023-02-06T15:34:22.789Z,17.17
2023-02-06T15:36:50.219Z,15.75
2023-02-06T15:39:17.910Z,20.63
2023-02-06T15:41:48.112Z,15.55
2023-02-06T15:44:31.677Z,15.25
2023-02-06T15:47:00.454Z,18.42
2023-02-06T15:49:44.346Z,24.70
2023-02-06T15:52:13.522Z,12.27
2023-02-06T15:54:44.896Z,21.30
2023-02-06T15:57:36.443Z,23.15
2023-02-06T16:00:09.415Z,14.85
2023-02-06T16:02:41.938Z,20.20
2023-02-06T16:05:19.418Z,13.63
2023-02-06T16:07:51.926Z,15.13
2023-02-06T16:13:00.040Z,17.70
2023-02-06T16:16:06.043Z,23.00
2023-02-06T16:18:39.104Z,17.40
2023-02-06T16:21:17.661Z,26.80
2023-02-06T16:23:50.494Z,17.95
2023-02-06T16:26:23.783Z,19.33
2023-02-06T16:29:00.441Z,15.85
2023-02-06T16:31:29.829Z,20.80
2023-02-06T16:34:02.995Z,17.60
2023-02-06T16:36:32.268Z,24.58
2023-02-06T16:39:04.056Z,22.08
2023-02-06T16:41:38.169Z,17.15
2023-02-06T16:44:11.135Z,17.25
2023-02-06T16:46:37.871Z,18.30
2023-02-06T16:49:23.584Z,17.58
2023-02-06T16:51:53.458Z,20.08
2023-02-06T16:54:29.590Z,23.50
2023-02-06T16:57:14.286Z,24.80
2023-02-06T16:59:41.047Z,18.38
2023-02-06T17:02:13.586Z,22.95
2023-02-06T17:07:20.037Z,20.58
2023-02-06T17:09:48.206Z,16.90
2023-02-06T17:12:17.332Z,17.17
2023-02-06T17:14:50.880Z,19.13
2023-02-06T17:17:19.966Z,17.27
2023-02-06T17:19:49.105Z,15.02
2023-02-06T17:22:16.309Z,17.80
2023-02-06T17:24:43.103Z,19.13
2023-02-06T17:27:15.027Z,29.17
2023-02-06T17:29:41.868Z,21.30
2023-02-06T17:32:09.201Z,21.45
2023-02-06T17:34:39.218Z,15.10
2023-02-06T17:37:08.125Z,16.88
2023-02-06T17:39:35.606Z,17.50
2023-02-06T17:42:02.453Z,18.27
2023-02-06T17:44:29.159Z,19.08
2023-02-06T17:46:55.825Z,15.45
2023-02-06T17:49:22.616Z,19.63
2023-02-06T17:51:49.700Z,18.38
2023-02-06T17:54:16.678Z,26.95
2023-02-06T17:56:43.593Z,16.25
2023-02-06T17:59:14.673Z,19.23
2023-02-06T18:01:42.656Z,16.90
2023-02-06T18:04:13.568Z,17.88
2023-02-06T18:06:40.569Z,15.82
2023-02-06T18:09:07.484Z,23.92
2023-02-06T18:11:35.774Z,19.48
2023-02-06T18:14:03.077Z,22.92
2023-02-06T18:16:31.510Z,14.77
2023-02-06T18:18:58.210Z,22.80
2023-02-06T18:21:25.327Z,18.33
2023-02-06T18:23:53.188Z,24.08
2023-02-06T18:26:24.322Z,20.77
2023-02-06T18:28:52.376Z,22.33
2023-02-06T18:31:32.873Z,22.67
2023-02-06T18:34:03.533Z,23.83
2023-02-06T18:36:30.355Z,17.40
2023-02-06T18:38:57.638Z,29.20
2023-02-06T18:41:43.064Z,22.20
2023-02-06T18:44:11.296Z,21.38
2023-02-06T18:46:38.417Z,24.52
2023-02-06T18:49:06.025Z,26.15
2023-02-06T18:51:35.570Z,23.50
2023-02-06T18:54:02.312Z,28.35
2023-02-06T18:56:33.323Z,21.08
2023-02-06T18:59:00.101Z,25.38
2023-02-06T19:01:27.079Z,21.75
2023-02-06T19:03:59.465Z,26.23
2023-02-06T19:06:34.119Z,21.05
2023-02-06T19:09:01.323Z,23.63
2023-02-06T19:11:28.077Z,26.60
2023-02-06T19:13:55.372Z,28.75
2023-02-06T19:16:22.165Z,28.08
2023-02-06T19:18:49.346Z,38.78
2023-02-06T19:21:21.126Z,36.00
2023-02-06T19:23:54.209Z,28.50
2023-02-06T19:26:20.949Z,42.35
2023-02-06T19:28:47.658Z,29.85
2023-02-06T19:31:20.436Z,36.03
2023-02-06T19:33:47.377Z,34.25
2023-02-06T19:36:18.448Z,36.17
2023-02-06T19:38:45.379Z,36.25
2023-02-06T19:41:21.041Z,42.22
2023-02-06T19:43:48.580Z,38.22
2023-02-06T19:46:17.850Z,32.10
2023-02-06T19:48:46.586Z,33.47
2023-02-06T19:51:19.936Z,35.17
2023-02-06T19:53:49.654Z,36.10
2023-02-06T19:56:43.538Z,38.47
2023-02-06T19:59:18.407Z,34.95
2023-02-06T20:02:00.014Z,39.58
2023-02-06T20:04:30.231Z,41.42
2023-02-06T20:06:57.129Z,39.15
2023-02-06T20:09:24.295Z,41.97
2023-02-06T20:11:51.266Z,39.15
2023-02-06T20:14:19.072Z,42.28
2023-02-06T20:16:47.159Z,44.72
2023-02-06T20:19:20.178Z,44.58
2023-02-06T20:21:53.190Z,40.13
2023-02-06T20:24:23.401Z,40.13
2023-02-06T20:26:55.643Z,33.95
2023-02-06T20:29:24.576Z,35.13
2023-02-06T20:31:52.553Z,32.67
2023-02-06T20:34:19.910Z,36.03
2023-02-06T20:36:47.322Z,30.02
2023-02-06T20:39:14.906Z,33.20
2023-02-06T20:41:42.452Z,31.23
2023-02-06T20:44:11.589Z,27.60
2023-02-06T20:46:41.302Z,31.35
2023-02-06T20:49:16.250Z,34.20
2023-02-06T20:51:43.410Z,28.42
2023-02-06T20:54:11.562Z,31.70
2023-02-06T20:56:39.261Z,27.27
2023-02-06T20:59:06.807Z,31.35
2023-02-06T21:01:33.868Z,25.77
2023-02-06T21:04:04.005Z,25.48
2023-02-06T21:06:32.304Z,28.70
2023-02-06T21:09:02.085Z,32.83
2023-02-06T21:11:38.559Z,32.40
2023-02-06T21:14:06.515Z,30.20
2023-02-06T21:16:34.486Z,33.97
2023-02-06T21:19:02.176Z,37.33
2023-02-06T21:21:29.504Z,28.17
2023-02-06T21:23:56.276Z,30.33
2023-02-06T21:26:27.069Z,30.60
2023-02-06T21:28:54.106Z,29.83
2023-02-06T21:31:23.792Z,24.33
2023-02-06T21:33:51.941Z,23.67
2023-02-06T21:36:20.989Z,24.85
2023-02-06T21:38:48.056Z,26.48
2023-02-06T21:41:17.572Z,30.60
2023-02-06T21:43:44.747Z,29.17
2023-02-06T21:46:13.011Z,20.50
2023-02-06T21:48:41.062Z,25.45
2023-02-06T21:51:17.088Z,23.77
2023-02-06T21:53:45.232Z,32.20
2023-02-06T21:56:22.322Z,20.98
2023-02-06T21:58:49.661Z,28.35
2023-02-06T22:01:21.992Z,26.23
2023-02-06T22:03:49.556Z,28.40
2023-02-06T22:06:19.698Z,19.63
2023-02-06T22:08:48.315Z,25.27
2023-02-06T22:11:24.028Z,43.28
2023-02-06T22:13:51.143Z,39.78
2023-02-06T22:16:20.931Z,43.22
2023-02-06T22:18:47.985Z,44.13
2023-02-06T22:21:20.936Z,29.08
2023-02-06T22:23:50.611Z,26.38
2023-02-06T22:26:19.454Z,21.60
2023-02-06T22:28:49.733Z,28.73
2023-02-06T22:31:25.403Z,22.42
2023-02-06T22:33:52.860Z,18.17
2023-02-06T22:36:22.321Z,26.15
2023-02-06T22:38:53.760Z,16.67
2023-02-06T22:41:21.825Z,19.65
2023-02-06T22:43:50.003Z,18.45
2023-02-06T22:46:37.974Z,20.58
2023-02-06T22:49:08.745Z,22.40
2023-02-06T22:51:37.184Z,17.77
2023-02-06T22:54:05.451Z,18.80
2023-02-06T22:56:37.017Z,23.58
2023-02-06T22:59:11.268Z,21.25
2023-02-06T23:01:58.330Z,24.48
2023-02-06T23:04:30.703Z,19.25
2023-02-06T23:06:57.680Z,20.70
2023-02-06T23:09:27.295Z,16.70
2023-02-06T23:11:54.618Z,17.30
2023-02-06T23:14:21.684Z,22.95
2023-02-06T23:16:48.435Z,15.77
2023-02-06T23:19:16.915Z,26.45
2023-02-06T23:21:45.114Z,16.52
2023-02-06T23:24:13.086Z,19.60
2023-02-06T23:26:45.419Z,17.67
2023-02-06T23:29:17.665Z,18.00
2023-02-06T23:31:45.898Z,20.88
2023-02-06T23:34:23.889Z,21.35
2023-02-06T23:36:51.910Z,24.85
2023-02-06T23:39:19.091Z,17.70
2023-02-06T23:41:46.021Z,22.98
2023-02-06T23:44:12.940Z,17.98
2023-02-06T23:46:40.632Z,20.08
2023-02-06T23:49:07.729Z,17.90
2023-02-06T23:51:36.389Z,24.83
2023-02-06T23:54:03.659Z,17.58
2023-02-06T23:56:31.764Z,17.15
2023-02-06T23:59:00.565Z,16.13
